Time;durP1;ratioP1;P1;durP2;ratioP2;P2;SDS_P1;SDS_P2;PMS_P1;PMS_P2;Temp;Humidity;BMP_temperature;BMP_pressure;BME280_temperature;BME280_humidity;BME280_pressure;Samples;Min_cycle;Max_cycle;Signal;HPM_P1;HPM_P2
2022/03/28 00:00:31;;;;;;;15.17;7.93;;;7.10;96.60;;;;;;5071282;28;20229;-85
2022/03/28 00:02:58;;;;;;;13.00;7.43;;;7.10;96.80;;;;;;5070743;28;20200;-86
2022/03/28 00:05:24;;;;;;;12.53;8.13;;;7.20;96.90;;;;;;5071129;28;20737;-85
2022/03/28 00:07:49;;;;;;;12.87;7.63;;;7.20;97.20;;;;;;5081131;28;20186;-85
2022/03/28 00:10:16;;;;;;;11.30;7.33;;;7.20;97.20;;;;;;5057349;28;20169;-85
2022/03/28 00:12:42;;;;;;;11.87;7.33;;;7.20;97.10;;;;;;5057452;28;20200;-85
2022/03/28 00:15:09;;;;;;;16.43;7.83;;;7.00;97.20;;;;;;5057485;28;20175;-85
2022/03/28 00:17:36;;;;;;;14.43;7.70;;;6.70;97.30;;;;;;5057394;28;20205;-85
2022/03/28 00:20:04;;;;;;;14.40;7.90;;;6.60;97.50;;;;;;5057509;28;20176;-85
2022/03/28 00:22:30;;;;;;;14.53;7.23;;;6.50;97.80;;;;;;5057625;28;20224;-85
2022/03/28 00:24:56;;;;;;;16.27;7.73;;;6.20;98.10;;;;;;5057644;28;20208;-85
2022/03/28 00:27:22;;;;;;;12.17;7.23;;;6.20;98.40;;;;;;5057373;28;20209;-85
2022/03/28 00:29:48;;;;;;;12.50;7.37;;;6.10;98.60;;;;;;5057316;28;20176;-85
2022/03/28 00:32:14;;;;;;;15.23;8.20;;;5.90;98.80;;;;;;5057468;28;20196;-85
2022/03/28 00:34:40;;;;;;;16.03;7.30;;;5.80;99.10;;;;;;5057399;28;20196;-85
2022/03/28 00:37:07;;;;;;;13.40;7.47;;;5.70;99.30;;;;;;5069676;28;20201;-85
2022/03/28 00:39:33;;;;;;;15.13;7.47;;;5.80;99.30;;;;;;5087345;28;20185;-85
2022/03/28 00:41:59;;;;;;;12.73;7.67;;;5.80;99.30;;;;;;5087380;28;20201;-85
2022/03/28 00:44:25;;;;;;;13.83;7.20;;;5.80;99.30;;;;;;5087751;28;20220;-85
2022/03/28 00:46:51;;;;;;;12.77;7.57;;;5.80;99.40;;;;;;5074619;28;20235;-85
2022/03/28 00:49:17;;;;;;;16.60;7.90;;;5.70;99.60;;;;;;5091054;28;20202;-85
2022/03/28 00:51:43;;;;;;;15.17;7.60;;;5.50;99.80;;;;;;5091270;28;20734;-85
2022/03/28 00:54:09;;;;;;;12.73;7.37;;;5.20;99.90;;;;;;5074313;28;20177;-85
2022/03/28 00:56:37;;;;;;;12.00;6.83;;;5.10;99.90;;;;;;5091148;28;20227;-85
2022/03/28 00:59:04;;;;;;;13.63;6.90;;;5.10;99.90;;;;;;5090900;28;20616;-85
2022/03/28 01:01:30;;;;;;;15.07;7.47;;;5.20;99.90;;;;;;5091423;28;20197;-85
2022/03/28 01:03:56;;;;;;;10.70;6.50;;;5.20;99.90;;;;;;5073872;28;20177;-85
2022/03/28 01:06:23;;;;;;;13.47;7.07;;;5.10;99.90;;;;;;5090863;28;20385;-85
2022/03/28 01:08:49;;;;;;;12.70;7.17;;;5.10;99.90;;;;;;5094143;28;20275;-86
2022/03/28 01:11:16;;;;;;;16.03;7.13;;;5.30;99.90;;;;;;5060499;28;20181;-85
2022/03/28 01:13:42;;;;;;;17.57;7.03;;;5.40;99.90;;;;;;5060876;28;20180;-85
2022/03/28 01:16:09;;;;;;;11.00;7.00;;;5.50;99.90;;;;;;5060901;28;20184;-85
2022/03/28 01:18:35;;;;;;;10.93;6.97;;;5.50;99.90;;;;;;5060219;28;20177;-85
2022/03/28 01:21:03;;;;;;;13.10;7.47;;;5.40;99.90;;;;;;5060369;28;20184;-85
2022/03/28 01:23:29;;;;;;;19.50;7.97;;;5.30;99.90;;;;;;5060172;28;20204;-85
2022/03/28 01:25:56;;;;;;;16.57;7.77;;;5.30;99.90;;;;;;5060415;28;20299;-85
2022/03/28 01:28:24;;;;;;;12.97;8.00;;;5.30;99.90;;;;;;5060523;28;20207;-85
2022/03/28 01:30:53;;;;;;;13.53;7.60;;;5.30;99.90;;;;;;5060257;28;20198;-85
2022/03/28 01:33:19;;;;;;;12.63;7.37;;;5.30;99.90;;;;;;5076955;28;20204;-85
2022/03/28 01:35:44;;;;;;;11.80;7.20;;;5.20;99.90;;;;;;5076745;28;20176;-85
2022/03/28 01:38:15;;;;;;;13.07;7.13;;;5.20;99.90;;;;;;5057182;28;20193;-85
2022/03/28 01:40:43;;;;;;;12.87;7.47;;;5.20;99.90;;;;;;5090210;28;20626;-84
2022/03/28 01:43:10;;;;;;;13.00;7.87;;;5.10;99.90;;;;;;5090333;28;20616;-84
2022/03/28 01:45:36;;;;;;;12.53;7.23;;;5.00;99.90;;;;;;5090090;28;20205;-84
2022/03/28 01:48:03;;;;;;;12.27;7.30;;;4.90;99.90;;;;;;5090228;28;20208;-84
2022/03/28 01:50:29;;;;;;;15.27;7.60;;;4.60;99.90;;;;;;5089544;28;20182;-84
2022/03/28 01:52:55;;;;;;;12.73;7.53;;;4.50;99.90;;;;;;5090216;28;20197;-85
2022/03/28 01:55:23;;;;;;;13.40;7.97;;;4.40;99.90;;;;;;5072793;28;20226;-84
2022/03/28 01:57:49;;;;;;;14.53;7.53;;;4.30;99.90;;;;;;5088596;28;20178;-85
2022/03/28 02:00:17;;;;;;;15.40;7.90;;;4.20;99.90;;;;;;5089548;28;20177;-84
2022/03/28 02:02:47;;;;;;;11.73;7.57;;;4.20;99.90;;;;;;5089503;28;20240;-85
2022/03/28 02:05:16;;;;;;;12.07;7.40;;;4.20;99.90;;;;;;5089078;28;20226;-84
2022/03/28 02:07:44;;;;;;;11.83;7.30;;;4.20;99.90;;;;;;5093223;28;20188;-85
2022/03/28 02:10:14;;;;;;;13.80;7.67;;;4.20;99.90;;;;;;5059149;28;20176;-84
2022/03/28 02:12:40;;;;;;;16.43;7.90;;;4.30;99.90;;;;;;5058722;28;20677;-84
2022/03/28 02:15:07;;;;;;;12.77;6.77;;;4.30;99.90;;;;;;5059371;28;20206;-84
2022/03/28 02:17:34;;;;;;;11.93;6.83;;;4.10;99.90;;;;;;5059432;28;20198;-85
2022/03/28 02:20:01;;;;;;;13.17;7.73;;;4.10;99.90;;;;;;5059355;28;20187;-85
2022/03/28 02:22:26;;;;;;;16.30;7.83;;;4.20;99.90;;;;;;5059200;28;20295;-85
2022/03/28 02:24:53;;;;;;;15.13;7.67;;;4.20;99.90;;;;;;5075751;28;20279;-84
2022/03/28 02:27:19;;;;;;;13.13;7.70;;;4.20;99.90;;;;;;5075754;28;20202;-84
2022/03/28 02:29:44;;;;;;;16.70;8.27;;;4.20;99.90;;;;;;5058853;28;20187;-84
2022/03/28 02:32:12;;;;;;;14.23;8.23;;;4.20;99.90;;;;;;5058982;28;20200;-85
2022/03/28 02:34:38;;;;;;;14.53;8.07;;;4.20;99.90;;;;;;5075862;28;20188;-85
2022/03/28 02:37:04;;;;;;;13.93;7.87;;;4.20;99.90;;;;;;5075657;28;20189;-85
2022/03/28 02:39:30;;;;;;;13.03;7.83;;;4.20;99.90;;;;;;5058967;28;20634;-85
2022/03/28 02:41:56;;;;;;;16.07;8.30;;;4.10;99.90;;;;;;5075626;28;20204;-85
2022/03/28 02:44:22;;;;;;;16.43;7.73;;;4.00;99.90;;;;;;5059154;28;20179;-85
2022/03/28 02:46:49;;;;;;;16.03;8.27;;;3.90;99.90;;;;;;5075515;28;20211;-85
2022/03/28 02:49:16;;;;;;;11.00;7.37;;;3.80;99.90;;;;;;5058622;28;20176;-85
2022/03/28 02:51:42;;;;;;;18.40;7.97;;;3.90;99.90;;;;;;5059078;28;20196;-85
2022/03/28 02:54:08;;;;;;;15.43;8.07;;;3.90;99.90;;;;;;5059140;28;20175;-85
2022/03/28 02:56:34;;;;;;;12.17;8.13;;;4.00;99.90;;;;;;5058731;28;20187;-85
2022/03/28 02:59:00;;;;;;;13.80;7.90;;;3.90;99.90;;;;;;5058485;28;20218;-85
2022/03/28 03:01:26;;;;;;;13.77;8.53;;;3.90;99.90;;;;;;5058591;28;20187;-85
2022/03/28 03:03:51;;;;;;;18.17;8.20;;;3.90;99.90;;;;;;5058559;28;20172;-85
2022/03/28 03:06:17;;;;;;;12.43;8.07;;;3.90;99.90;;;;;;5058915;28;20203;-85
2022/03/28 03:08:43;;;;;;;12.73;8.67;;;3.90;99.90;;;;;;5058288;28;20595;-85
2022/03/28 03:11:09;;;;;;;12.77;7.83;;;3.90;99.90;;;;;;5074728;28;20168;-85
2022/03/28 03:13:36;;;;;;;12.70;8.07;;;3.90;99.90;;;;;;5075196;28;20179;-85
2022/03/28 03:16:04;;;;;;;12.03;7.80;;;3.90;99.90;;;;;;5074920;28;20215;-84
2022/03/28 03:18:30;;;;;;;16.23;8.37;;;3.80;99.90;;;;;;5058312;28;20192;-85
2022/03/28 03:20:56;;;;;;;12.60;7.43;;;3.90;99.90;;;;;;5058202;28;20180;-84
2022/03/28 03:23:22;;;;;;;11.97;7.50;;;3.90;99.90;;;;;;5057947;28;20200;-84
2022/03/28 03:25:49;;;;;;;12.73;7.93;;;3.90;99.90;;;;;;5058423;28;20257;-84
2022/03/28 03:28:16;;;;;;;14.30;7.57;;;3.70;99.90;;;;;;5057934;28;20241;-84
2022/03/28 03:30:42;;;;;;;13.63;7.43;;;3.70;99.90;;;;;;5057173;28;20182;-84
2022/03/28 03:33:08;;;;;;;11.77;8.13;;;3.70;99.90;;;;;;5056320;28;20196;-84
2022/03/28 03:35:34;;;;;;;13.87;7.90;;;3.70;99.90;;;;;;5058154;28;20184;-84
2022/03/28 03:38:00;;;;;;;14.87;7.70;;;3.70;99.90;;;;;;5056632;28;20237;-85
2022/03/28 03:40:28;;;;;;;14.60;7.67;;;3.80;99.90;;;;;;5059131;28;20200;-84
2022/03/28 03:42:53;;;;;;;15.77;8.03;;;3.70;99.90;;;;;;5074758;28;20204;-84
2022/03/28 03:45:19;;;;;;;17.03;8.20;;;3.90;99.90;;;;;;5058180;28;20184;-84
2022/03/28 03:47:45;;;;;;;16.90;7.83;;;4.00;99.90;;;;;;5074395;28;20179;-84
2022/03/28 03:50:11;;;;;;;13.53;7.47;;;4.00;99.90;;;;;;5057707;28;20184;-84
2022/03/28 03:52:37;;;;;;;13.83;7.50;;;4.00;99.90;;;;;;5057788;28;20265;-85
2022/03/28 03:55:04;;;;;;;16.00;7.37;;;4.00;99.90;;;;;;5058726;28;20215;-85
2022/03/28 03:57:30;;;;;;;11.40;7.30;;;4.00;99.90;;;;;;5074995;28;20195;-85
2022/03/28 03:59:56;;;;;;;14.23;7.40;;;3.90;99.90;;;;;;5075296;28;20184;-85
2022/03/28 04:02:26;;;;;;;13.23;7.70;;;3.90;99.90;;;;;;5057259;28;20200;-85
2022/03/28 04:04:52;;;;;;;15.60;7.83;;;3.80;99.90;;;;;;5057995;28;20175;-85
2022/03/28 04:07:17;;;;;;;13.27;7.87;;;3.70;99.90;;;;;;5057327;28;20688;-85
2022/03/28 04:09:43;;;;;;;17.33;8.10;;;3.70;99.90;;;;;;5091328;28;20236;-85
2022/03/28 04:12:11;;;;;;;13.73;7.60;;;3.70;99.90;;;;;;5091481;28;20296;-85
2022/03/28 04:14:37;;;;;;;13.03;7.80;;;3.80;99.90;;;;;;5091708;28;20230;-85
2022/03/28 04:17:03;;;;;;;13.40;7.60;;;3.80;99.90;;;;;;5091689;28;20176;-85
2022/03/28 04:19:30;;;;;;;16.83;7.40;;;3.80;99.90;;;;;;5092405;28;20180;-85
2022/03/28 04:21:55;;;;;;;13.23;7.77;;;3.70;99.90;;;;;;5096971;28;20275;-85
2022/03/28 04:24:22;;;;;;;14.60;7.83;;;3.80;99.90;;;;;;5095194;28;20258;-85
2022/03/28 04:26:48;;;;;;;12.47;7.50;;;3.80;99.90;;;;;;5094964;28;20203;-85
2022/03/28 04:29:14;;;;;;;15.87;7.93;;;3.70;99.90;;;;;;5078215;28;20175;-85
2022/03/28 04:31:40;;;;;;;13.27;7.63;;;3.70;99.90;;;;;;5061727;28;20191;-86
2022/03/28 04:34:07;;;;;;;14.50;7.63;;;3.70;99.90;;;;;;5061336;28;20195;-85
2022/03/28 04:36:33;;;;;;;14.50;7.40;;;3.60;99.90;;;;;;5078333;28;20192;-85
2022/03/28 04:39:18;;;;;;;15.93;8.00;;;3.50;99.90;;;;;;5073668;28;20194;-86
2022/03/28 04:41:44;;;;;;;15.23;8.13;;;3.60;99.90;;;;;;5066331;28;20615;-85
2022/03/28 04:44:11;;;;;;;18.73;7.27;;;3.60;99.90;;;;;;5061587;28;20262;-85
2022/03/28 04:46:37;;;;;;;10.53;6.90;;;3.60;99.90;;;;;;5061396;28;20192;-85
2022/03/28 04:49:03;;;;;;;13.43;7.80;;;3.60;99.90;;;;;;5063487;28;20195;-85
2022/03/28 04:51:30;;;;;;;15.10;7.63;;;3.60;99.90;;;;;;5061386;28;20240;-85
2022/03/28 04:54:02;;;;;;;14.40;7.60;;;3.70;99.90;;;;;;5062560;28;20243;-85
2022/03/28 04:56:34;;;;;;;14.00;7.20;;;3.70;99.90;;;;;;5061817;28;20188;-84
2022/03/28 04:59:06;;;;;;;16.13;8.20;;;3.60;99.90;;;;;;5077561;28;20172;-85
2022/03/28 05:01:33;;;;;;;12.50;7.90;;;3.60;99.90;;;;;;5061990;28;20204;-85
2022/03/28 05:03:59;;;;;;;18.23;7.90;;;3.50;99.90;;;;;;5104524;22;20295;-43
2022/03/28 05:06:25;;;;;;;11.63;7.23;;;3.50;99.90;;;;;;5051184;28;20309;-43
2022/03/28 05:08:51;;;;;;;14.80;8.03;;;3.40;99.90;;;;;;5052352;28;20638;-43
2022/03/28 05:11:22;;;;;;;13.13;8.10;;;3.30;99.90;;;;;;5052349;28;20213;-43
2022/03/28 05:13:51;;;;;;;13.53;8.10;;;3.30;99.90;;;;;;5052270;28;20193;-44
2022/03/28 05:16:18;;;;;;;16.77;8.00;;;3.30;99.90;;;;;;5052157;28;20182;-44
2022/03/28 05:18:44;;;;;;;12.67;7.87;;;3.30;99.90;;;;;;5052578;28;20218;-44
2022/03/28 05:21:10;;;;;;;13.80;8.60;;;3.20;99.90;;;;;;5051531;28;20201;-45
2022/03/28 05:23:36;;;;;;;15.23;8.60;;;3.30;99.90;;;;;;5035617;28;20192;-44
2022/03/28 05:26:03;;;;;;;16.90;9.10;;;3.30;99.90;;;;;;5051985;28;20205;-45
2022/03/28 05:28:29;;;;;;;13.97;8.63;;;3.30;99.90;;;;;;5035343;28;20667;-45
2022/03/28 05:30:57;;;;;;;17.20;8.80;;;3.30;99.90;;;;;;5036031;28;20224;-44
2022/03/28 05:33:23;;;;;;;12.37;8.07;;;3.30;99.90;;;;;;5052438;28;20672;-44
2022/03/28 05:35:50;;;;;;;15.40;8.80;;;3.30;99.90;;;;;;5050662;28;20181;-44
2022/03/28 05:38:18;;;;;;;17.43;8.67;;;3.20;99.90;;;;;;5051991;28;20188;-45
2022/03/28 05:40:44;;;;;;;16.37;8.93;;;3.00;99.90;;;;;;5051663;28;20193;-45
2022/03/28 05:43:09;;;;;;;18.23;8.93;;;2.90;99.90;;;;;;5051602;28;20215;-45
2022/03/28 05:45:36;;;;;;;18.27;8.83;;;2.80;99.90;;;;;;5051671;28;20213;-44
2022/03/28 05:48:03;;;;;;;14.93;8.50;;;2.80;99.90;;;;;;5034859;28;20558;-44
2022/03/28 05:50:29;;;;;;;16.10;8.60;;;2.80;99.90;;;;;;5051546;28;20200;-44
2022/03/28 05:52:55;;;;;;;18.20;9.67;;;2.80;99.90;;;;;;5051639;28;20240;-45
2022/03/28 05:55:21;;;;;;;18.90;10.07;;;2.80;99.90;;;;;;5034856;28;20587;-44
2022/03/28 05:57:47;;;;;;;18.80;9.57;;;2.90;99.90;;;;;;5034891;28;20268;-44
2022/03/28 06:00:14;;;;;;;16.13;8.30;;;3.00;99.90;;;;;;5051086;28;20266;-45
2022/03/28 06:02:41;;;;;;;15.73;9.07;;;3.10;99.90;;;;;;5051081;28;20219;-44
2022/03/28 06:05:08;;;;;;;21.30;10.20;;;3.20;99.90;;;;;;5050943;28;20216;-43
2022/03/28 06:07:34;;;;;;;18.77;9.63;;;3.30;99.90;;;;;;5052589;28;20185;-43
2022/03/28 06:10:00;;;;;;;17.07;9.20;;;3.40;99.90;;;;;;5034372;28;20238;-44
2022/03/28 06:12:26;;;;;;;15.77;9.43;;;3.50;99.90;;;;;;5051493;28;20216;-44
2022/03/28 06:14:52;;;;;;;16.80;9.47;;;3.70;99.90;;;;;;5051191;28;20216;-45
2022/03/28 06:17:25;;;;;;;15.57;9.03;;;3.80;99.90;;;;;;5034462;28;20252;-43
2022/03/28 06:19:52;;;;;;;19.00;9.37;;;3.90;99.90;;;;;;5051043;28;20216;-45
2022/03/28 06:22:19;;;;;;;16.23;9.70;;;4.00;99.90;;;;;;5034850;28;20201;-44
2022/03/28 06:24:45;;;;;;;17.60;10.07;;;4.10;99.90;;;;;;5050942;28;20177;-45
2022/03/28 06:27:11;;;;;;;16.43;9.63;;;4.20;99.90;;;;;;5051113;28;20184;-43
2022/03/28 06:29:37;;;;;;;17.63;9.97;;;4.30;99.90;;;;;;5050649;28;20193;-44
2022/03/28 06:32:03;;;;;;;15.97;10.13;;;4.40;99.90;;;;;;5050970;28;20259;-43
2022/03/28 06:34:30;;;;;;;17.20;10.57;;;4.60;99.90;;;;;;5051172;28;20208;-43
2022/03/28 06:36:57;;;;;;;16.23;10.13;;;4.70;99.90;;;;;;5050695;28;20210;-45
2022/03/28 06:39:23;;;;;;;22.50;10.13;;;4.90;99.90;;;;;;5033818;28;20182;-45
2022/03/28 06:41:50;;;;;;;17.23;9.97;;;5.00;99.90;;;;;;5050912;28;20228;-43
2022/03/28 06:44:17;;;;;;;15.00;9.73;;;5.20;99.90;;;;;;5050318;28;20194;-43
2022/03/28 06:46:44;;;;;;;18.90;9.80;;;5.40;99.90;;;;;;5050483;28;20220;-43
2022/03/28 06:49:11;;;;;;;15.13;9.23;;;5.40;99.90;;;;;;5050548;28;20205;-44
2022/03/28 06:51:37;;;;;;;15.30;10.07;;;5.50;99.90;;;;;;5050462;28;20759;-45
2022/03/28 06:54:05;;;;;;;16.90;9.83;;;5.50;99.90;;;;;;5050596;28;20185;-43
2022/03/28 06:56:31;;;;;;;17.33;9.47;;;5.60;99.90;;;;;;5033945;28;20214;-43
2022/03/28 06:58:57;;;;;;;15.13;9.57;;;5.70;99.90;;;;;;5050089;28;20178;-43
2022/03/28 07:01:23;;;;;;;20.10;10.50;;;5.80;99.90;;;;;;5050303;28;20201;-45
2022/03/28 07:03:49;;;;;;;18.80;10.00;;;6.00;99.90;;;;;;5033554;28;20190;-45
2022/03/28 07:06:14;;;;;;;16.17;10.43;;;6.20;99.90;;;;;;5050235;28;20170;-44
2022/03/28 07:08:40;;;;;;;15.80;11.20;;;6.30;99.90;;;;;;5033564;28;20186;-44
2022/03/28 07:11:06;;;;;;;17.13;11.17;;;6.50;99.90;;;;;;5050001;28;20201;-43
2022/03/28 07:13:32;;;;;;;16.57;10.67;;;6.60;99.90;;;;;;5049841;28;20643;-43
2022/03/28 07:15:58;;;;;;;17.63;10.80;;;6.70;99.90;;;;;;5033376;28;20302;-45
2022/03/28 07:18:24;;;;;;;16.80;11.10;;;6.80;99.90;;;;;;5033083;28;20174;-45
2022/03/28 07:20:50;;;;;;;19.63;10.57;;;6.90;99.90;;;;;;5050895;28;20198;-44
2022/03/28 07:23:17;;;;;;;17.43;10.97;;;7.10;99.90;;;;;;5051234;28;20178;-43
2022/03/28 07:25:44;;;;;;;17.23;10.63;;;7.20;99.90;;;;;;5033486;28;20188;-44
2022/03/28 07:28:12;;;;;;;19.40;11.03;;;7.30;99.90;;;;;;5049823;28;20273;-45
2022/03/28 07:30:39;;;;;;;18.50;11.00;;;7.50;99.90;;;;;;5049665;28;20197;-45
2022/03/28 07:33:06;;;;;;;16.97;10.97;;;7.60;99.90;;;;;;5049888;28;20178;-44
2022/03/28 07:35:36;;;;;;;21.40;11.57;;;7.80;99.90;;;;;;5049680;28;20240;-44
2022/03/28 07:38:07;;;;;;;19.90;10.43;;;7.90;99.90;;;;;;5051013;28;20180;-44
2022/03/28 07:40:35;;;;;;;18.20;11.23;;;8.00;99.90;;;;;;5049440;28;20182;-45
2022/03/28 07:43:00;;;;;;;17.53;11.40;;;8.10;99.90;;;;;;5049832;28;20183;-45
2022/03/28 07:45:27;;;;;;;19.70;11.40;;;8.30;99.90;;;;;;5033340;28;20232;-45
2022/03/28 07:47:52;;;;;;;16.63;10.40;;;8.50;99.90;;;;;;5032955;28;20185;-44
2022/03/28 07:50:18;;;;;;;18.43;11.23;;;8.50;99.90;;;;;;5032584;28;20189;-43
2022/03/28 07:52:44;;;;;;;17.03;11.37;;;8.70;99.90;;;;;;5049510;28;20200;-44
2022/03/28 07:55:12;;;;;;;22.33;11.53;;;8.80;99.90;;;;;;5032233;28;20178;-45
2022/03/28 07:57:38;;;;;;;17.70;10.93;;;9.00;99.90;;;;;;5050818;28;20267;-45
2022/03/28 08:00:11;;;;;;;19.23;11.67;;;9.20;99.90;;;;;;5050593;28;20257;-44
2022/03/28 08:02:41;;;;;;;17.00;11.87;;;9.30;99.90;;;;;;5049557;28;20210;-45
2022/03/28 08:05:08;;;;;;;16.97;11.17;;;9.50;99.90;;;;;;5032919;28;20236;-45
2022/03/28 08:07:35;;;;;;;20.87;12.03;;;9.70;99.90;;;;;;5049258;28;20202;-45
2022/03/28 08:10:02;;;;;;;19.83;12.13;;;9.90;99.90;;;;;;5032737;28;20235;-45
2022/03/28 08:12:28;;;;;;;18.47;11.80;;;10.00;99.90;;;;;;5049347;28;20214;-46
2022/03/28 08:14:54;;;;;;;18.03;11.43;;;10.20;99.90;;;;;;5032716;28;20211;-45
2022/03/28 08:17:20;;;;;;;17.63;11.57;;;10.30;99.90;;;;;;5032546;28;20202;-46
2022/03/28 08:19:48;;;;;;;18.20;11.63;;;10.40;99.90;;;;;;5029095;28;20190;-45
2022/03/28 08:22:14;;;;;;;17.40;11.90;;;10.60;99.90;;;;;;5037910;28;20202;-45
2022/03/28 08:24:41;;;;;;;17.77;11.00;;;10.70;99.90;;;;;;5055133;28;20181;-46
2022/03/28 08:27:08;;;;;;;19.97;12.13;;;10.90;99.80;;;;;;5021956;28;20170;-45
2022/03/28 08:29:35;;;;;;;20.40;11.77;;;11.10;99.50;;;;;;5022100;28;20266;-45
2022/03/28 08:32:05;;;;;;;20.57;12.90;;;11.40;99.60;;;;;;5054824;28;20208;-46
2022/03/28 08:34:31;;;;;;;18.83;11.97;;;11.60;99.50;;;;;;5047272;28;20221;-46
2022/03/28 08:36:57;;;;;;;20.63;12.07;;;11.70;98.70;;;;;;5049329;28;20244;-46
2022/03/28 08:39:23;;;;;;;21.77;12.80;;;11.90;98.30;;;;;;5048545;28;20178;-46
2022/03/28 08:41:49;;;;;;;20.80;12.27;;;12.00;98.30;;;;;;5048526;28;20200;-46
2022/03/28 08:44:17;;;;;;;18.40;11.20;;;12.20;98.10;;;;;;5032599;28;20220;-46
2022/03/28 08:46:45;;;;;;;21.27;12.20;;;12.40;98.00;;;;;;5050273;28;20674;-46
2022/03/28 08:49:12;;;;;;;18.87;12.53;;;12.60;97.80;;;;;;5032224;28;20215;-46
2022/03/28 08:51:39;;;;;;;24.77;13.00;;;12.80;97.60;;;;;;5048758;28;20207;-46
2022/03/28 08:54:05;;;;;;;24.83;12.93;;;13.00;97.50;;;;;;5048917;28;20263;-46
2022/03/28 08:56:31;;;;;;;20.57;12.70;;;13.20;97.00;;;;;;5048854;28;20207;-46
2022/03/28 08:58:57;;;;;;;22.77;12.40;;;13.30;96.60;;;;;;5031841;28;20184;-46
2022/03/28 09:01:23;;;;;;;21.47;12.50;;;13.40;96.20;;;;;;5048856;28;20276;-46
2022/03/28 09:03:50;;;;;;;23.30;13.00;;;13.60;96.20;;;;;;5048634;28;20193;-46
2022/03/28 09:06:38;;;;;;;16.70;11.87;;;13.70;96.60;;;;;;5034002;28;20185;-46
2022/03/28 09:09:16;;;;;;;20.30;13.03;;;14.00;95.80;;;;;;5052417;28;20181;-46
2022/03/28 09:11:46;;;;;;;20.60;13.17;;;14.10;95.40;;;;;;5053621;28;20232;-46
2022/03/28 09:14:37;;;;;;;19.63;12.53;;;14.20;95.10;;;;;;5035652;28;20185;-46
2022/03/28 09:17:10;;;;;;;21.00;12.67;;;14.40;95.30;;;;;;5052270;28;20206;-46
2022/03/28 09:19:54;;;;;;;20.10;13.03;;;14.60;95.10;;;;;;5051916;28;20186;-46
2022/03/28 09:22:25;;;;;;;24.90;13.23;;;14.70;94.60;;;;;;5052170;28;20205;-46
2022/03/28 09:24:54;;;;;;;24.30;13.33;;;14.90;94.70;;;;;;5052085;28;20185;-46
2022/03/28 09:27:27;;;;;;;22.40;13.47;;;15.10;94.90;;;;;;5052154;28;20189;-46
2022/03/28 09:30:06;;;;;;;17.03;12.27;;;15.20;94.40;;;;;;5052013;28;20274;-46
2022/03/28 09:32:36;;;;;;;22.17;13.20;;;15.40;93.90;;;;;;5051719;28;20251;-46
2022/03/28 09:35:06;;;;;;;24.47;13.37;;;15.60;93.50;;;;;;5053156;28;20213;-46
2022/03/28 09:37:52;;;;;;;22.10;13.37;;;15.60;93.00;;;;;;5035150;28;20217;-46
2022/03/28 09:40:39;;;;;;;19.30;12.93;;;15.80;93.20;;;;;;5035075;28;20174;-46
2022/03/28 09:43:22;;;;;;;21.43;13.83;;;16.10;94.00;;;;;;5034951;28;20182;-46
2022/03/28 09:45:53;;;;;;;20.43;13.10;;;16.20;92.40;;;;;;5051937;28;20178;-45
2022/03/28 09:48:27;;;;;;;20.00;13.40;;;16.30;93.10;;;;;;5035154;28;20220;-45
2022/03/28 09:50:59;;;;;;;23.43;12.63;;;16.50;92.60;;;;;;5051164;28;20255;-46
2022/03/28 09:53:28;;;;;;;21.90;13.33;;;16.70;92.50;;;;;;5051921;28;20182;-46
2022/03/28 09:56:08;;;;;;;25.50;13.93;;;16.90;92.10;;;;;;5051384;28;20216;-45
2022/03/28 09:58:49;;;;;;;23.43;13.60;;;17.10;91.90;;;;;;5051663;28;20188;-46
2022/03/28 10:01:25;;;;;;;23.87;14.07;;;17.20;91.00;;;;;;5034456;28;20248;-46
2022/03/28 10:04:05;;;;;;;25.43;14.63;;;17.40;91.20;;;;;;5052463;28;20272;-46
2022/03/28 10:06:32;;;;;;;20.57;13.63;;;17.50;91.80;;;;;;5052071;28;20259;-46
2022/03/28 10:08:58;;;;;;;21.65;13.27;;;17.70;91.00;;;;;;5052430;28;20213;-46
2022/03/28 10:11:25;;;;;;;23.27;14.02;;;17.90;90.70;;;;;;5051243;28;20202;-46
2022/03/28 10:13:51;;;;;;;21.45;14.60;;;18.10;89.30;;;;;;5052230;28;20182;-45
2022/03/28 10:16:18;;;;;;;23.15;14.30;;;18.20;88.60;;;;;;5052359;28;20308;-45
2022/03/28 10:18:46;;;;;;;20.70;14.65;;;18.50;90.50;;;;;;5025411;28;20201;-45
2022/03/28 10:21:31;;;;;;;22.65;13.90;;;18.60;84.20;;;;;;5057922;28;20205;-46
2022/03/28 10:24:05;;;;;;;20.52;13.20;;;18.70;82.20;;;;;;5041371;28;20185;-45
2022/03/28 10:26:37;;;;;;;20.50;13.48;;;18.90;82.10;;;;;;5039480;28;20174;-46
2022/03/28 10:29:07;;;;;;;19.45;13.95;;;19.20;79.30;;;;;;5039838;28;20181;-45
2022/03/28 10:31:35;;;;;;;21.63;14.98;;;19.20;76.30;;;;;;5041816;28;20194;-45
2022/03/28 10:34:07;;;;;;;19.42;13.75;;;19.30;77.00;;;;;;5055317;28;20167;-45
2022/03/28 10:36:35;;;;;;;17.40;12.93;;;19.60;79.00;;;;;;5014231;28;20209;-45
2022/03/28 10:39:30;;;;;;;17.42;12.70;;;19.70;73.40;;;;;;5050260;28;20211;-45
2022/03/28 10:42:05;;;;;;;20.02;13.40;;;19.80;71.90;;;;;;5050449;28;20204;-45
2022/03/28 10:45:00;;;;;;;20.65;13.50;;;19.90;73.50;;;;;;5051950;28;20180;-46
2022/03/28 10:47:45;;;;;;;17.13;12.88;;;20.00;70.10;;;;;;5029103;28;20184;-45
2022/03/28 10:50:13;;;;;;;19.10;12.93;;;20.00;68.60;;;;;;5049860;28;20188;-45
2022/03/28 10:53:02;;;;;;;17.10;12.10;;;20.10;69.00;;;;;;5050297;28;20308;-45
2022/03/28 10:55:44;;;;;;;17.95;12.30;;;20.10;64.70;;;;;;5051445;28;20185;-46
2022/03/28 10:58:27;;;;;;;16.20;11.50;;;20.10;62.80;;;;;;5051750;28;20197;-45
2022/03/28 11:01:09;;;;;;;16.52;11.57;;;20.20;64.00;;;;;;5050150;28;20212;-45
2022/03/28 11:03:44;;;;;;;15.57;11.30;;;20.20;62.20;;;;;;5033651;28;20256;-47
2022/03/28 11:06:10;;;;;;;15.75;11.40;;;20.40;66.20;;;;;;5050191;28;20576;-45
2022/03/28 11:09:00;;;;;;;16.75;12.18;;;20.50;64.40;;;;;;5033293;28;20213;-45
2022/03/28 11:11:32;;;;;;;15.55;11.35;;;20.60;64.10;;;;;;5050076;28;20201;-46
2022/03/28 11:14:11;;;;;;;15.45;11.77;;;20.70;62.90;;;;;;5050264;28;20273;-45
2022/03/28 11:19:33;;;;;;;16.25;10.68;;;20.90;61.10;;;;;;4969543;28;20251;-31
2022/03/28 11:22:04;;;;;;;17.98;11.90;;;20.90;60.70;;;;;;4955277;28;20196;-32
2022/03/28 11:24:56;;;;;;;14.07;10.63;;;21.10;63.50;;;;;;4955284;28;20180;-31
2022/03/28 11:27:29;;;;;;;15.05;11.10;;;21.20;59.80;;;;;;4958008;28;20299;-31
2022/03/28 11:30:10;;;;;;;15.32;11.20;;;21.30;61.20;;;;;;4970253;28;20181;-31
2022/03/28 11:32:37;;;;;;;16.08;11.50;;;21.30;60.40;;;;;;4971548;28;20240;-31
2022/03/28 11:35:03;;;;;;;17.65;11.63;;;21.30;59.00;;;;;;4970908;28;20199;-31
2022/03/28 11:37:30;;;;;;;18.40;12.15;;;21.40;62.50;;;;;;4972094;28;20245;-31
2022/03/28 11:40:02;;;;;;;18.13;12.05;;;21.40;61.80;;;;;;4987220;28;20185;-31
2022/03/28 11:42:30;;;;;;;16.60;12.32;;;21.20;60.70;;;;;;4971083;28;20169;-31
2022/03/28 11:44:57;;;;;;;15.73;12.50;;;21.20;61.40;;;;;;4971077;28;20176;-32
2022/03/28 11:47:24;;;;;;;17.73;11.43;;;21.20;61.20;;;;;;4971026;28;20263;-32
2022/03/28 11:50:00;;;;;;;15.65;11.30;;;21.30;61.30;;;;;;4971880;28;20188;-32
2022/03/28 11:52:31;;;;;;;17.00;11.52;;;21.40;60.30;;;;;;4970810;28;20596;-31
2022/03/28 11:54:58;;;;;;;16.73;12.02;;;21.40;62.30;;;;;;4970999;28;20264;-31
2022/03/28 12:00:21;;;;;;;15.82;11.40;;;21.50;61.70;;;;;;4986798;28;20184;-31
2022/03/28 12:02:53;;;;;;;15.10;11.73;;;21.60;60.60;;;;;;4970252;28;20192;-31
2022/03/28 12:05:39;;;;;;;16.45;11.18;;;21.70;60.70;;;;;;4970893;28;20208;-31
2022/03/28 12:08:15;;;;;;;14.38;10.52;;;21.70;60.30;;;;;;4970350;28;20255;-32
2022/03/28 12:10:51;;;;;;;17.88;10.82;;;21.80;59.10;;;;;;4970306;28;20207;-31
2022/03/28 12:13:19;;;;;;;16.65;10.10;;;21.80;58.60;;;;;;4970582;28;20176;-31
2022/03/28 12:15:48;;;;;;;16.92;10.52;;;21.80;59.20;;;;;;4970573;28;20239;-31
2022/03/28 12:18:16;;;;;;;12.52;10.40;;;21.70;60.00;;;;;;4970649;28;20223;-31
2022/03/28 12:20:44;;;;;;;14.18;10.30;;;21.90;59.30;;;;;;4971809;28;20176;-31
2022/03/28 12:23:12;;;;;;;12.18;9.70;;;21.90;59.10;;;;;;4970443;28;20223;-31
2022/03/28 12:25:41;;;;;;;12.43;9.77;;;22.00;58.70;;;;;;4970260;28;20633;-31
2022/03/28 12:28:24;;;;;;;13.25;9.98;;;22.10;57.70;;;;;;4970783;28;20292;-32
2022/03/28 12:30:53;;;;;;;14.15;10.90;;;22.20;58.70;;;;;;4986512;28;20173;-32
2022/03/28 12:33:20;;;;;;;13.02;10.55;;;22.10;58.50;;;;;;4970452;28;20181;-31
2022/03/28 12:35:47;;;;;;;14.52;10.20;;;22.30;58.60;;;;;;4986608;28;20177;-31
2022/03/28 12:38:16;;;;;;;11.82;10.02;;;22.30;58.30;;;;;;4970317;28;20212;-32
2022/03/28 12:40:46;;;;;;;12.27;9.48;;;22.50;57.50;;;;;;4987341;28;20184;-32
2022/03/28 12:43:14;;;;;;;13.57;9.88;;;22.70;57.70;;;;;;4975097;28;20227;-32
2022/03/28 12:45:42;;;;;;;11.50;9.23;;;23.00;57.40;;;;;;4976992;28;20172;-32
2022/03/28 12:48:09;;;;;;;13.52;9.18;;;23.00;59.00;;;;;;4976469;28;20296;-32
2022/03/28 12:50:35;;;;;;;13.77;9.38;;;22.80;57.30;;;;;;4974191;28;20185;-31